Terminal Aerodrome Forecast
Issued by NWS Wilmington, OH

Home | Current Version | Previous Version | Text Only | Print | Product List | Glossary On
Versions: 1 2 3 4 5 6 7 8 9 10 11 12 13 14 15 16 17 18 19 20 21 22 23
000
FTUS41 KILN 301127
TAFDAY
TAF
KDAY 301127Z 3012/3112 00000KT 3SM BR BKN006
     FM301300 24006KT P6SM FEW010 SCT025
     FM301700 24006KT P6SM VCTS SCT040CB BKN250
     FM310200 24002KT P6SM FEW040=

USA.gov is the U.S. government's official web portal to all federal, state and local government web resources and services.